Time;durP1;ratioP1;P1;durP2;ratioP2;P2;SDS_P1;SDS_P2;PMS_P1;PMS_P2;Temp;Humidity;BMP_temperature;BMP_pressure;BME280_temperature;BME280_humidity;BME280_pressure;Samples;Min_cycle;Max_cycle;Signal;HPM_P1;HPM_P2
2023/10/12 00:01:38;;;;;;;8.10;4.13;;;;;;;20.20;63.72;100516.06;5052106;28;20314;-82
2023/10/12 00:04:07;;;;;;;6.03;4.50;;;;;;;20.23;63.61;100516.69;5058684;28;20211;-82
2023/10/12 00:06:37;;;;;;;6.50;4.40;;;;;;;20.31;63.02;100515.41;5058640;28;20661;-82
2023/10/12 00:09:16;;;;;;;8.47;4.67;;;;;;;20.05;63.52;100515.13;5058687;28;20240;-78
2023/10/12 00:11:48;;;;;;;7.70;4.47;;;;;;;20.24;64.02;100496.38;5059308;28;20252;-82
2023/10/12 00:14:15;;;;;;;8.30;5.20;;;;;;;20.17;64.03;100477.31;5064394;28;20204;-80
2023/10/12 00:16:42;;;;;;;8.60;5.00;;;;;;;20.18;64.11;100471.06;5068443;28;20203;-81
2023/10/12 00:19:12;;;;;;;8.23;5.63;;;;;;;20.20;64.34;100468.34;5064583;28;20227;-82
2023/10/12 00:21:43;;;;;;;9.37;6.17;;;;;;;20.11;64.88;100456.47;5075432;28;20276;-82
2023/10/12 00:24:11;;;;;;;10.07;6.17;;;;;;;20.13;65.16;100440.47;5077505;28;20205;-81
2023/10/12 00:26:37;;;;;;;7.23;5.43;;;;;;;20.17;64.97;100440.19;5077104;28;20231;-79
2023/10/12 00:29:06;;;;;;;11.37;5.17;;;;;;;20.11;65.22;100435.25;5075487;28;20235;-82
2023/10/12 00:31:32;;;;;;;14.17;5.03;;;;;;;20.10;65.47;100424.75;5070763;28;20278;-81
2023/10/12 00:34:02;;;;;;;11.50;4.70;;;;;;;20.13;65.38;100404.22;5069527;28;20211;-80
2023/10/12 00:36:29;;;;;;;8.70;4.70;;;;;;;20.24;65.40;100390.34;5068734;28;20204;-81
2023/10/12 00:38:59;;;;;;;9.80;5.53;;;;;;;20.28;65.21;100394.50;5068481;28;20210;-80
2023/10/12 00:41:29;;;;;;;8.93;4.57;;;;;;;20.14;65.19;100413.03;5069304;28;20221;-81
2023/10/12 00:44:08;;;;;;;8.03;4.60;;;;;;;20.12;65.52;100407.84;5068585;28;20204;-81
2023/10/12 00:46:52;;;;;;;6.63;4.33;;;;;;;20.20;65.54;100404.72;5064731;28;20251;-80
2023/10/12 00:49:27;;;;;;;7.83;4.87;;;;;;;20.02;65.95;100407.53;5057501;28;20234;-82
2023/10/12 00:52:07;;;;;;;9.53;5.03;;;;;;;20.11;66.02;100400.81;5057757;28;20271;-82
2023/10/12 00:54:43;;;;;;;13.10;6.27;;;;;;;20.10;65.94;100382.34;5057666;28;20208;-82
2023/10/12 00:57:09;;;;;;;8.83;5.67;;;;;;;19.90;66.76;100383.53;5056501;28;20204;-81
2023/10/12 00:59:37;;;;;;;9.70;5.43;;;;;;;19.82;66.76;100378.66;5056901;28;20201;-81
2023/10/12 01:02:08;;;;;;;6.23;5.57;;;;;;;19.85;66.98;100362.63;5057846;28;20252;-83
2023/10/12 01:04:35;;;;;;;7.63;5.53;;;;;;;19.94;67.09;100358.56;5049629;28;20272;-81
2023/10/12 01:07:01;;;;;;;11.63;6.17;;;;;;;19.94;66.84;100354.13;5058186;28;20243;-81
2023/10/12 01:09:39;;;;;;;7.13;5.70;;;;;;;19.76;67.42;100361.38;5056642;28;20228;-81
2023/10/12 01:12:12;;;;;;;9.17;6.27;;;;;;;19.72;67.81;100337.78;5055029;28;20292;-79
2023/10/12 01:14:42;;;;;;;11.00;6.57;;;;;;;19.82;68.29;100328.34;5056371;28;20226;-81
2023/10/12 01:17:08;;;;;;;11.90;6.03;;;;;;;19.94;67.75;100316.16;5057865;28;20679;-81
2023/10/12 01:19:44;;;;;;;8.87;5.73;;;;;;;19.90;67.79;100323.47;5056396;28;20196;-81
2023/10/12 01:22:13;;;;;;;15.03;5.37;;;;;;;19.79;68.94;100321.44;5055194;28;20227;-80
2023/10/12 01:24:44;;;;;;;7.67;5.30;;;;;;;19.77;69.15;100303.94;5055954;28;20203;-81
2023/10/12 01:27:13;;;;;;;7.20;5.20;;;;;;;19.68;70.04;100291.19;5054959;28;20212;-81
2023/10/12 01:29:40;;;;;;;10.97;5.40;;;;;;;19.63;71.21;100255.25;5054698;28;20235;-81
2023/10/12 01:32:27;;;;;;;7.60;6.33;;;;;;;19.73;72.41;100223.81;5057626;28;20725;-82
2023/10/12 01:34:55;;;;;;;8.60;5.97;;;;;;;19.55;73.16;100199.25;5055414;28;20213;-81
2023/10/12 01:37:25;;;;;;;11.07;6.50;;;;;;;19.43;73.37;100171.72;5056747;28;20247;-80
2023/10/12 01:39:57;;;;;;;9.07;6.37;;;;;;;19.50;73.38;100163.41;5058061;28;20200;-80
2023/10/12 01:42:35;;;;;;;9.87;6.90;;;;;;;19.38;73.68;100160.56;5056193;28;20231;-81
2023/10/12 01:45:05;;;;;;;8.60;6.13;;;;;;;19.35;74.02;100146.69;5055391;28;20215;-81
2023/10/12 01:47:36;;;;;;;7.83;6.00;;;;;;;19.37;73.86;100145.63;5056268;28;20200;-82
2023/10/12 01:50:05;;;;;;;6.67;5.30;;;;;;;19.31;73.67;100142.50;5056025;28;20240;-82
2023/10/12 01:52:34;;;;;;;6.70;5.60;;;;;;;19.19;73.58;100158.16;5056090;28;20233;-81
2023/10/12 01:55:00;;;;;;;10.30;5.63;;;;;;;19.02;74.69;100139.78;5055239;28;20210;-81
2023/10/12 01:57:32;;;;;;;7.50;5.93;;;;;;;18.97;75.18;100128.66;5055005;28;20207;-81
2023/10/12 01:59:59;;;;;;;9.97;6.10;;;;;;;18.97;75.90;100110.13;5056180;28;20211;-82
2023/10/12 02:02:26;;;;;;;7.70;6.67;;;;;;;18.82;76.79;100088.06;5055955;28;20232;-80
2023/10/12 02:04:53;;;;;;;9.30;6.20;;;;;;;18.78;78.35;100050.34;5055541;28;20275;-81
2023/10/12 02:07:19;;;;;;;8.67;7.40;;;;;;;18.34;81.61;100008.88;5055074;28;20212;-80
2023/10/12 02:09:49;;;;;;;11.53;7.17;;;;;;;18.53;82.65;99953.16;5055845;28;20247;-81
2023/10/12 02:12:16;;;;;;;10.43;7.40;;;;;;;18.18;85.14;99916.44;5055053;28;20633;-80
2023/10/12 02:14:43;;;;;;;8.70;7.17;;;;;;;18.02;87.02;99866.31;5054674;28;20203;-80
2023/10/12 02:17:10;;;;;;;8.80;7.87;;;;;;;17.92;89.40;99827.31;5055710;28;20203;-80
2023/10/12 02:19:41;;;;;;;12.10;7.60;;;;;;;17.78;91.41;99799.06;5054209;28;20584;-81
2023/10/12 02:22:18;;;;;;;12.47;8.27;;;;;;;17.47;93.80;99756.84;5055479;28;20232;-80
2023/10/12 02:24:50;;;;;;;12.83;8.40;;;;;;;17.41;95.48;99730.00;5054529;28;20212;-80
2023/10/12 02:27:17;;;;;;;10.17;8.50;;;;;;;17.45;97.35;99690.13;5053905;28;20201;-80
2023/10/12 02:29:49;;;;;;;14.47;10.23;;;;;;;17.24;99.17;99670.28;5053734;28;20229;-79
2023/10/12 02:32:22;;;;;;;11.60;10.47;;;;;;;17.10;100.00;99650.00;5054349;28;20252;-80
2023/10/12 02:34:55;;;;;;;11.27;10.27;;;;;;;17.04;100.00;99642.47;5054076;28;20203;-80
2023/10/12 02:37:24;;;;;;;11.97;10.70;;;;;;;16.86;100.00;99629.41;5054357;28;20206;-80
2023/10/12 02:39:54;;;;;;;13.33;12.03;;;;;;;16.82;100.00;99616.50;5054295;28;20198;-80
2023/10/12 02:42:38;;;;;;;14.30;12.07;;;;;;;16.91;100.00;99615.09;5054930;28;20232;-80
2023/10/12 02:47:49;;;;;;;13.60;12.00;;;;;;;16.77;100.00;99645.75;5054584;28;20209;-79
2023/10/12 02:50:27;;;;;;;13.47;12.20;;;;;;;16.95;100.00;99664.09;5053546;28;20225;-79
2023/10/12 02:52:54;;;;;;;14.13;12.17;;;;;;;16.70;100.00;99659.34;5054392;28;20230;-80
2023/10/12 02:55:26;;;;;;;12.07;10.83;;;;;;;17.00;100.00;99675.22;5054880;28;20297;-80
2023/10/12 02:57:59;;;;;;;11.13;10.07;;;;;;;17.01;100.00;99706.78;5053441;28;20267;-80
2023/10/12 03:00:34;;;;;;;11.63;9.70;;;;;;;16.72;100.00;99740.00;5055549;28;20212;-80
2023/10/12 03:03:07;;;;;;;10.27;9.30;;;;;;;16.81;100.00;99733.41;5056941;28;20228;-78
2023/10/12 03:05:45;;;;;;;10.60;9.60;;;;;;;16.42;100.00;99742.56;5058419;28;20223;-79
2023/10/12 03:08:14;;;;;;;12.03;10.57;;;;;;;16.44;100.00;99727.53;5057517;28;20231;-79
2023/10/12 03:11:00;;;;;;;11.83;10.63;;;;;;;16.70;100.00;99738.41;5058573;28;20221;-79
2023/10/12 03:13:34;;;;;;;11.80;10.70;;;;;;;16.43;100.00;99736.34;5056948;28;20209;-79
2023/10/12 03:16:10;;;;;;;13.33;11.97;;;;;;;16.37;100.00;99753.34;5057839;28;20287;-79
2023/10/12 03:18:36;;;;;;;12.53;11.30;;;;;;;16.31;100.00;99742.28;5056248;28;20730;-80
2023/10/12 03:21:04;;;;;;;13.20;11.03;;;;;;;16.28;100.00;99733.63;5057462;28;20205;-80
2023/10/12 03:23:33;;;;;;;15.03;11.80;;;;;;;15.97;100.00;99744.09;5057068;28;20205;-79
2023/10/12 03:26:16;;;;;;;15.57;12.73;;;;;;;15.85;100.00;99749.03;5056818;28;20205;-79
2023/10/12 03:28:45;;;;;;;15.57;13.03;;;;;;;16.09;100.00;99738.16;5056944;28;20204;-79
2023/10/12 03:31:23;;;;;;;14.30;12.83;;;;;;;16.24;100.00;99765.47;5057680;28;20228;-79
2023/10/12 03:33:54;;;;;;;13.53;12.33;;;;;;;16.29;100.00;99795.03;5057755;28;20208;-79
2023/10/12 03:36:25;;;;;;;15.40;13.97;;;;;;;15.96;100.00;99789.78;5057911;28;20212;-79
2023/10/12 03:39:14;;;;;;;16.00;14.33;;;;;;;15.81;100.00;99783.50;5058120;28;20748;-78
2023/10/12 03:44:36;;;;;;;17.47;15.73;;;;;;;15.72;100.00;99773.41;5047452;28;20203;-77
2023/10/12 03:47:14;;;;;;;18.73;16.67;;;;;;;15.68;100.00;99783.25;5056811;28;20240;-78
2023/10/12 03:49:57;;;;;;;17.57;15.77;;;;;;;15.79;100.00;99793.25;5055533;28;20316;-78
2023/10/12 03:52:28;;;;;;;19.57;17.27;;;;;;;15.81;100.00;99810.66;5052680;28;20758;-77
2023/10/12 03:55:16;;;;;;;20.77;16.67;;;;;;;15.96;100.00;99819.56;5055856;28;20702;-78
2023/10/12 03:57:48;;;;;;;18.43;16.53;;;;;;;16.12;100.00;99840.69;5056842;28;20269;-77
2023/10/12 04:00:32;;;;;;;17.77;16.07;;;;;;;16.07;100.00;99863.75;5058160;28;20204;-78
2023/10/12 04:03:04;;;;;;;19.00;16.80;;;;;;;16.12;100.00;99879.34;5051831;28;20284;-78
2023/10/12 04:05:46;;;;;;;16.00;14.57;;;;;;;16.03;100.00;99878.84;5057388;28;20209;-78
2023/10/12 04:08:38;;;;;;;15.17;13.63;;;;;;;15.81;100.00;99894.03;5056664;28;20204;-78
2023/10/12 04:14:09;;;;;;;11.93;10.80;;;;;;;15.43;100.00;99907.25;5044853;28;20208;-78
2023/10/12 04:16:40;;;;;;;12.33;10.43;;;;;;;15.27;100.00;99921.09;5056729;28;20316;-77
2023/10/12 04:19:07;;;;;;;10.47;9.40;;;;;;;15.08;100.00;99907.97;5056142;28;20236;-78
2023/10/12 04:21:35;;;;;;;10.90;9.90;;;;;;;15.05;100.00;99905.47;5055567;28;20777;-77
2023/10/12 04:26:44;;;;;;;11.30;10.03;;;;;;;14.95;100.00;99885.81;5055699;28;20201;-78
2023/10/12 04:29:13;;;;;;;13.57;11.17;;;;;;;15.01;100.00;99877.63;5057513;28;20225;-77
2023/10/12 04:31:51;;;;;;;12.90;10.37;;;;;;;15.17;100.00;99869.03;5056923;28;20233;-78
2023/10/12 04:34:20;;;;;;;12.33;10.60;;;;;;;15.24;100.00;99876.56;5056453;28;20205;-78
2023/10/12 04:36:48;;;;;;;13.93;10.23;;;;;;;15.31;100.00;99878.91;5055633;28;20205;-78
2023/10/12 04:39:24;;;;;;;12.77;11.30;;;;;;;15.27;100.00;99894.81;5057778;28;20277;-79
2023/10/12 04:42:04;;;;;;;11.77;10.67;;;;;;;15.43;100.00;99896.72;5059312;28;20227;-78
2023/10/12 04:44:43;;;;;;;17.70;11.50;;;;;;;15.41;100.00;99898.56;5056541;28;20211;-78
2023/10/12 04:47:11;;;;;;;11.93;10.83;;;;;;;15.42;100.00;99892.38;5056971;28;20204;-78
2023/10/12 04:49:57;;;;;;;12.87;11.40;;;;;;;15.38;100.00;99902.22;5057254;28;20224;-78
2023/10/12 04:52:36;;;;;;;11.80;10.63;;;;;;;15.31;100.00;99895.53;5051640;28;20233;-77
2023/10/12 04:55:21;;;;;;;11.83;10.10;;;;;;;15.24;100.00;99891.47;5055644;28;20212;-78
2023/10/12 04:58:09;;;;;;;10.97;9.87;;;;;;;15.41;100.00;99882.78;5055600;28;20216;-78
2023/10/12 05:00:48;;;;;;;12.93;9.33;;;;;;;15.51;100.00;99899.00;5056693;28;20213;-79
2023/10/12 05:03:25;;;;;;;10.37;9.37;;;;;;;15.48;100.00;99907.88;5056824;28;20259;-78
2023/10/12 05:06:04;;;;;;;9.90;9.00;;;;;;;15.71;100.00;99917.28;5049047;28;20216;-78
2023/10/12 05:08:31;;;;;;;11.17;10.03;;;;;;;15.76;100.00;99927.63;5056654;28;20254;-78
2023/10/12 05:10:57;;;;;;;10.40;9.23;;;;;;;15.96;100.00;99934.56;5057275;28;20232;-77
2023/10/12 05:13:24;;;;;;;11.47;9.10;;;;;;;16.10;100.00;99955.78;5055586;28;20213;-78
2023/10/12 05:15:55;;;;;;;9.90;9.00;;;;;;;16.16;100.00;99963.38;5044473;28;20415;-80
2023/10/12 05:18:23;;;;;;;9.67;8.77;;;;;;;16.25;100.00;99969.94;5050698;28;20706;-79
2023/10/12 05:20:50;;;;;;;10.37;9.37;;;;;;;16.37;100.00;99977.25;5053552;28;20224;-79
2023/10/12 05:23:17;;;;;;;10.20;9.40;;;;;;;16.44;100.00;99980.41;5048665;28;20228;-80
2023/10/12 05:25:53;;;;;;;8.47;7.80;;;;;;;16.52;100.00;99988.78;5049198;28;20206;-80
2023/10/12 05:28:21;;;;;;;9.03;8.23;;;;;;;16.59;100.00;100000.72;5056173;28;20212;-79
2023/10/12 05:30:50;;;;;;;9.07;8.27;;;;;;;16.65;100.00;100010.94;5057688;28;20309;-80
2023/10/12 05:33:38;;;;;;;8.33;7.53;;;;;;;16.71;100.00;100019.47;5058134;28;20255;-79
2023/10/12 05:36:08;;;;;;;8.63;7.77;;;;;;;16.67;100.00;100016.16;5057823;28;20207;-79
2023/10/12 05:38:36;;;;;;;8.40;7.63;;;;;;;16.72;100.00;100011.47;5057817;28;20207;-79
2023/10/12 05:41:04;;;;;;;9.00;7.93;;;;;;;16.66;100.00;100004.75;5058911;28;20197;-80
2023/10/12 05:43:33;;;;;;;9.33;8.43;;;;;;;16.71;100.00;99995.75;5056529;28;20239;-79
2023/10/12 05:46:03;;;;;;;8.87;8.07;;;;;;;16.66;100.00;99983.66;5056574;28;20199;-79
2023/10/12 05:48:33;;;;;;;7.43;6.83;;;;;;;16.75;100.00;99981.47;5057249;28;20292;-79
2023/10/12 05:51:00;;;;;;;8.90;8.00;;;;;;;16.75;100.00;99990.25;5057593;28;20275;-78
2023/10/12 05:53:28;;;;;;;7.73;7.07;;;;;;;16.81;100.00;100007.53;5057461;28;20212;-79
2023/10/12 05:55:56;;;;;;;8.20;7.50;;;;;;;16.87;100.00;100021.28;5048984;28;20206;-80
2023/10/12 05:58:23;;;;;;;8.33;7.53;;;;;;;16.93;100.00;100035.09;5056448;28;20214;-80
2023/10/12 06:00:52;;;;;;;7.60;7.00;;;;;;;16.95;100.00;100044.59;5057060;28;20213;-79
2023/10/12 06:03:20;;;;;;;7.90;7.23;;;;;;;16.98;100.00;100056.78;5059119;28;20269;-78
2023/10/12 06:05:50;;;;;;;8.17;7.47;;;;;;;17.01;100.00;100064.53;5059855;28;20273;-78
2023/10/12 06:08:18;;;;;;;8.07;7.47;;;;;;;17.00;100.00;100068.94;5061733;28;20243;-79
2023/10/12 06:10:45;;;;;;;9.47;8.57;;;;;;;16.94;100.00;100039.41;5063021;28;20723;-78
2023/10/12 06:13:13;;;;;;;9.07;8.17;;;;;;;16.97;100.00;100047.19;5060838;28;20194;-78
2023/10/12 06:15:42;;;;;;;9.23;8.53;;;;;;;16.96;100.00;100038.38;5060766;28;20206;-78
2023/10/12 06:18:13;;;;;;;8.87;8.17;;;;;;;16.98;100.00;100059.41;5059257;28;20212;-78
2023/10/12 06:20:42;;;;;;;9.50;8.70;;;;;;;16.87;100.00;100046.78;5059926;28;20236;-78
2023/10/12 06:23:13;;;;;;;8.60;7.90;;;;;;;16.93;100.00;100049.13;5059180;28;20276;-80
2023/10/12 06:25:43;;;;;;;9.23;8.53;;;;;;;16.98;100.00;100072.59;5054215;28;20206;-79
2023/10/12 06:28:17;;;;;;;11.13;10.20;;;;;;;16.68;100.00;100063.50;5049735;28;20201;-78
2023/10/12 06:30:44;;;;;;;12.20;11.03;;;;;;;16.62;100.00;100036.59;5050348;28;20634;-79
2023/10/12 06:33:14;;;;;;;11.57;10.67;;;;;;;16.53;100.00;100029.16;5055213;28;20224;-79
2023/10/12 06:35:58;;;;;;;10.43;9.73;;;;;;;16.66;100.00;100019.72;5048926;28;20198;-80
2023/10/12 06:38:36;;;;;;;11.90;10.80;;;;;;;16.74;100.00;100024.59;5055880;28;20215;-80
2023/10/12 06:41:27;;;;;;;11.53;10.53;;;;;;;16.63;100.00;100010.19;5055644;28;20320;-80
2023/10/12 06:44:13;;;;;;;12.70;11.23;;;;;;;16.39;100.00;99985.94;5053595;28;20309;-80
2023/10/12 06:46:45;;;;;;;12.43;11.40;;;;;;;16.46;100.00;99986.47;5052723;28;20730;-78
2023/10/12 06:49:16;;;;;;;12.07;10.97;;;;;;;16.65;100.00;99989.03;5057143;28;20201;-78
2023/10/12 06:51:43;;;;;;;11.47;10.47;;;;;;;16.77;100.00;100009.47;5060935;28;20236;-78
2023/10/12 06:54:19;;;;;;;11.03;10.17;;;;;;;16.86;100.00;100029.25;5061691;28;20224;-78
2023/10/12 06:56:50;;;;;;;10.90;10.00;;;;;;;16.91;100.00;100039.56;5059178;28;20220;-79
2023/10/12 06:59:21;;;;;;;9.30;8.50;;;;;;;16.94;100.00;100057.88;5058755;28;20202;-79
2023/10/12 07:02:09;;;;;;;8.27;7.67;;;;;;;16.85;100.00;100067.09;5059796;28;20248;-77
2023/10/12 07:04:38;;;;;;;6.60;5.97;;;;;;;16.80;100.00;100072.56;5061146;28;20206;-79
2023/10/12 07:07:07;;;;;;;6.87;6.27;;;;;;;16.40;100.00;100057.91;5060507;28;20250;-78
2023/10/12 07:09:39;;;;;;;7.43;6.93;;;;;;;16.14;100.00;100024.94;5060459;28;20201;-80
2023/10/12 07:12:07;;;;;;;7.47;6.87;;;;;;;16.38;100.00;100029.00;5059790;28;20227;-81
2023/10/12 07:14:37;;;;;;;6.87;6.27;;;;;;;16.58;100.00;100042.97;5053853;28;20213;-81
2023/10/12 07:17:04;;;;;;;4.10;3.67;;;;;;;15.93;100.00;100076.84;5055432;28;20684;-81
2023/10/12 07:19:30;;;;;;;2.17;2.07;;;;;;;15.35;100.00;100106.63;5053454;28;20213;-80
2023/10/12 07:22:01;;;;;;;2.20;2.00;;;;;;;14.97;100.00;100117.88;5058389;28;20221;-81
2023/10/12 07:24:29;;;;;;;2.27;1.30;;;;;;;14.71;100.00;100113.72;5052225;28;20273;-80
2023/10/12 07:27:09;;;;;;;1.20;1.10;;;;;;;14.50;100.00;100107.53;5053895;28;20219;-79
2023/10/12 07:29:37;;;;;;;2.33;1.50;;;;;;;14.77;100.00;100108.19;5053645;28;20271;-80
2023/10/12 07:32:16;;;;;;;2.33;0.90;;;;;;;14.77;100.00;100131.00;5058884;28;20254;-80
2023/10/12 07:34:54;;;;;;;2.87;1.00;;;;;;;14.67;100.00;100144.50;5059994;28;20280;-80
2023/10/12 07:37:21;;;;;;;6.03;1.57;;;;;;;14.46;100.00;100147.97;5059470;28;20212;-81
2023/10/12 07:39:50;;;;;;;5.27;1.40;;;;;;;14.64;100.00;100126.22;5060934;28;20208;-82
2023/10/12 07:42:25;;;;;;;2.37;1.17;;;;;;;14.80;100.00;100141.38;5061460;28;20317;-82
2023/10/12 07:44:54;;;;;;;4.17;1.47;;;;;;;14.66;100.00;100155.91;5060478;28;20204;-80
2023/10/12 07:47:31;;;;;;;4.07;1.27;;;;;;;14.62;100.00;100164.00;5061250;28;20432;-81
2023/10/12 07:49:58;;;;;;;2.13;1.10;;;;;;;14.87;100.00;100161.22;5059442;28;20224;-80
2023/10/12 07:52:38;;;;;;;4.23;1.50;;;;;;;15.02;100.00;100168.47;5059267;28;20226;-81
2023/10/12 07:55:07;;;;;;;3.67;1.20;;;;;;;15.23;100.00;100198.25;5059754;28;20550;-80
2023/10/12 07:57:37;;;;;;;2.10;1.20;;;;;;;15.37;100.00;100244.19;5060517;28;20267;-81
2023/10/12 08:03:16;;;;;;;3.13;1.20;;;;;;;15.60;100.00;100304.56;5060874;28;20271;-80
2023/10/12 08:05:56;;;;;;;3.87;1.10;;;;;;;15.57;100.00;100338.03;5059904;28;20216;-80
2023/10/12 08:08:35;;;;;;;5.13;1.40;;;;;;;14.93;100.00;100352.00;5058632;28;20297;-78
2023/10/12 08:11:10;;;;;;;3.33;1.30;;;;;;;14.83;100.00;100330.47;5059868;28;20233;-81
2023/10/12 08:13:47;;;;;;;3.20;1.30;;;;;;;14.93;100.00;100317.81;5062457;28;20215;-81
2023/10/12 08:16:15;;;;;;;4.53;1.33;;;;;;;15.16;100.00;100311.63;5062061;28;20204;-82
2023/10/12 08:19:09;;;;;;;5.53;2.10;;;;;;;15.16;100.00;100327.41;5060770;28;20232;-79
2023/10/12 08:21:38;;;;;;;7.63;1.50;;;;;;;15.28;99.18;100356.72;5065805;28;20257;-80
2023/10/12 08:24:09;;;;;;;5.93;1.90;;;;;;;15.37;97.92;100387.06;5065958;28;20223;-80
2023/10/12 08:26:47;;;;;;;3.03;1.43;;;;;;;15.46;97.72;100401.59;5060900;28;20212;-79
2023/10/12 08:29:58;;;;;;;5.53;1.50;;;;;;;15.58;97.72;100397.63;5068530;28;20219;-81
2023/10/12 08:32:27;;;;;;;5.33;2.00;;;;;;;15.63;96.70;100428.09;5066739;28;20231;-79
2023/10/12 08:35:32;;;;;;;4.33;1.37;;;;;;;15.68;96.09;100438.47;5067683;28;20217;-78
2023/10/12 08:38:11;;;;;;;3.57;1.27;;;;;;;15.67;95.53;100437.59;5072636;28;20205;-84
2023/10/12 08:40:54;;;;;;;6.23;1.80;;;;;;;15.32;96.26;100440.75;5062773;28;20205;-81
2023/10/12 08:43:34;;;;;;;4.50;1.40;;;;;;;15.14;97.49;100426.53;5059391;28;20208;-80
2023/10/12 08:46:06;;;;;;;6.53;1.33;;;;;;;15.37;97.04;100421.25;5066033;28;20215;-81
2023/10/12 08:48:35;;;;;;;5.17;1.40;;;;;;;15.48;95.50;100437.47;5067140;28;20340;-81
2023/10/12 08:51:09;;;;;;;4.77;1.57;;;;;;;15.52;94.74;100458.38;5064797;28;20645;-80
2023/10/12 08:53:54;;;;;;;5.20;1.50;;;;;;;15.60;94.63;100459.81;5064876;28;20230;-81
2023/10/12 08:56:22;;;;;;;6.70;1.73;;;;;;;14.87;96.85;100459.06;5052812;28;20231;-80
2023/10/12 08:58:52;;;;;;;5.60;1.53;;;;;;;14.96;98.29;100420.19;5060556;28;20218;-78
2023/10/12 09:01:24;;;;;;;6.57;1.50;;;;;;;15.07;98.83;100400.47;5065192;28;20228;-79
2023/10/12 09:03:53;;;;;;;5.23;1.77;;;;;;;15.22;98.00;100409.56;5065178;28;20214;-79
2023/10/12 09:09:48;;;;;;;4.00;1.60;;;;;;;15.29;98.26;100413.66;5058755;28;20204;-80
2023/10/12 09:11:59;;;;;;;4.57;1.80;;;;;;;15.23;98.92;100408.63;5062273;28;20236;-81
2023/10/12 09:14:26;;;;;;;6.20;1.53;;;;;;;15.33;98.57;100403.88;5059502;28;20212;-80
2023/10/12 09:16:54;;;;;;;5.13;2.07;;;;;;;15.35;98.28;100417.81;5062064;28;20277;-81
2023/10/12 09:20:26;;;;;;;3.13;1.37;;;;;;;15.44;98.18;100417.47;5060296;28;20700;-80
2023/10/12 09:23:12;;;;;;;4.27;1.50;;;;;;;15.43;97.30;100439.41;5015270;28;20230;-81
2023/10/12 09:26:14;;;;;;;2.60;1.23;;;;;;;14.95;98.27;100437.75;5064469;28;20206;-82
2023/10/12 09:28:53;;;;;;;5.00;1.53;;;;;;;14.80;100.00;100398.88;5062754;28;20219;-80
2023/10/12 09:31:48;;;;;;;3.97;1.90;;;;;;;14.61;100.00;100380.34;5061853;28;20229;-81
2023/10/12 09:36:57;;;;;;;2.77;1.30;;;;;;;14.67;100.00;100359.09;5064043;28;20608;-81
2023/10/12 09:39:26;;;;;;;3.60;1.50;;;;;;;14.85;100.00;100354.91;5062660;28;20232;-81
2023/10/12 09:42:13;;;;;;;3.03;1.60;;;;;;;14.73;100.00;100352.72;5062085;28;20258;-81
2023/10/12 09:44:41;;;;;;;3.97;1.70;;;;;;;14.91;100.00;100378.31;5061054;28;20217;-80
2023/10/12 09:47:15;;;;;;;3.17;1.80;;;;;;;15.00;100.00;100385.84;5061524;28;20217;-79
2023/10/12 09:49:47;;;;;;;3.43;1.53;;;;;;;15.15;100.00;100387.03;5059016;28;20295;-79
2023/10/12 09:52:17;;;;;;;2.77;1.50;;;;;;;15.12;98.76;100415.22;5051785;28;20297;-79
2023/10/12 09:54:49;;;;;;;4.00;1.67;;;;;;;14.92;97.52;100440.47;5061478;28;20208;-79
2023/10/12 09:57:25;;;;;;;3.07;1.63;;;;;;;15.10;97.80;100433.66;5062363;28;20224;-80
2023/10/12 09:59:53;;;;;;;3.90;1.43;;;;;;;15.18;98.59;100431.63;5062142;28;20208;-80
2023/10/12 10:02:28;;;;;;;4.60;1.67;;;;;;;15.26;98.77;100429.56;5060689;28;20217;-80
2023/10/12 10:05:11;;;;;;;6.83;1.80;;;;;;;15.34;98.71;100423.13;5059886;28;20208;-79
2023/10/12 10:07:43;;;;;;;6.47;1.83;;;;;;;15.41;98.59;100420.22;5068066;28;20203;-79
2023/10/12 10:10:27;;;;;;;4.13;2.00;;;;;;;15.16;96.57;100445.72;5063166;28;20200;-80
2023/10/12 10:12:54;;;;;;;5.80;1.93;;;;;;;15.03;97.20;100455.88;5060498;28;20233;-79
2023/10/12 10:15:23;;;;;;;3.37;1.67;;;;;;;15.24;96.95;100451.56;5060307;28;20734;-79
2023/10/12 10:17:53;;;;;;;4.60;1.60;;;;;;;15.38;95.61;100466.81;5055099;28;20216;-80
2023/10/12 10:23:14;;;;;;;4.03;1.57;;;;;;;15.51;93.89;100506.66;5056164;28;20246;-81
2023/10/12 10:25:46;;;;;;;4.87;2.00;;;;;;;15.47;93.44;100529.59;5056661;28;20296;-79
2023/10/12 10:28:19;;;;;;;3.30;1.53;;;;;;;15.55;93.77;100530.16;5055455;28;20233;-81
2023/10/12 10:30:49;;;;;;;4.87;1.50;;;;;;;15.61;95.31;100508.03;5057357;28;20209;-80
2023/10/12 10:33:22;;;;;;;3.60;1.53;;;;;;;15.66;94.19;100520.09;5057555;28;21055;-79
2023/10/12 10:36:01;;;;;;;5.80;2.00;;;;;;;15.62;94.95;100512.38;5053838;28;20579;-79
2023/10/12 10:38:32;;;;;;;5.50;1.43;;;;;;;15.61;93.14;100527.28;5053625;28;20201;-78
2023/10/12 10:41:07;;;;;;;4.03;1.57;;;;;;;15.58;92.70;100540.59;5054584;28;20213;-78
2023/10/12 10:43:37;;;;;;;3.93;1.93;;;;;;;15.52;91.65;100559.25;5053105;28;20558;-78
2023/10/12 10:46:06;;;;;;;2.20;1.57;;;;;;;15.48;92.56;100547.97;5054499;28;20247;-82
2023/10/12 10:48:33;;;;;;;6.23;2.23;;;;;;;15.52;93.62;100532.94;5053857;28;20205;-78
2023/10/12 10:51:04;;;;;;;4.37;1.73;;;;;;;15.56;93.28;100533.66;5054741;28;20644;-80
2023/10/12 10:53:31;;;;;;;6.63;2.27;;;;;;;15.58;92.85;100540.59;5055848;28;20699;-80
2023/10/12 10:56:00;;;;;;;7.30;2.63;;;;;;;15.64;93.01;100531.59;5055968;28;20288;-78
2023/10/12 10:58:26;;;;;;;5.80;2.03;;;;;;;15.66;93.71;100525.34;5054977;28;20219;-78
2023/10/12 11:00:57;;;;;;;4.00;1.70;;;;;;;15.71;92.69;100526.94;5055554;28;20220;-79
2023/10/12 11:03:25;;;;;;;7.13;1.80;;;;;;;15.67;91.63;100537.59;5058476;28;20210;-79
2023/10/12 11:05:52;;;;;;;5.87;2.17;;;;;;;15.65;90.87;100564.88;5059856;28;20237;-80
2023/10/12 11:08:26;;;;;;;4.17;1.73;;;;;;;15.64;91.44;100553.50;5047332;28;20225;-79
2023/10/12 11:13:39;;;;;;;7.30;2.07;;;;;;;15.61;98.03;100442.25;5054644;28;20224;-81
2023/10/12 11:16:20;;;;;;;5.43;1.87;;;;;;;15.72;97.09;100424.25;5060098;28;20202;-82
2023/10/12 11:18:47;;;;;;;6.13;2.27;;;;;;;15.76;95.78;100453.97;5058218;28;20201;-82
2023/10/12 11:21:15;;;;;;;5.93;1.83;;;;;;;15.79;95.30;100465.22;5057806;28;20230;-78
2023/10/12 11:23:44;;;;;;;7.77;1.83;;;;;;;15.77;97.19;100442.53;5060050;28;20206;-82
2023/10/12 11:26:17;;;;;;;4.57;2.47;;;;;;;15.72;99.22;100410.22;5062712;28;20213;-81
2023/10/12 11:28:44;;;;;;;7.80;1.70;;;;;;;15.76;99.04;100390.81;5060762;28;20212;-80
2023/10/12 11:31:20;;;;;;;5.40;1.93;;;;;;;15.84;97.20;100408.00;5058982;28;20224;-79
2023/10/12 11:33:50;;;;;;;7.80;2.17;;;;;;;15.71;99.37;100400.63;5058553;28;20228;-80
2023/10/12 11:36:23;;;;;;;4.83;1.93;;;;;;;15.84;98.35;100404.50;5062243;28;20201;-82
2023/10/12 11:38:59;;;;;;;9.70;2.77;;;;;;;15.92;96.39;100427.88;5061195;28;20225;-83
2023/10/12 11:41:27;;;;;;;6.77;1.90;;;;;;;15.81;96.09;100439.69;5053309;28;20225;-80
2023/10/12 11:43:53;;;;;;;6.50;2.00;;;;;;;15.87;93.04;100472.81;5059314;28;20213;-80
2023/10/12 11:46:20;;;;;;;6.80;2.20;;;;;;;15.89;92.63;100505.19;5060739;28;20620;-83
2023/10/12 11:49:01;;;;;;;7.80;2.13;;;;;;;15.88;93.50;100506.13;5057669;28;20237;-83
2023/10/12 11:51:28;;;;;;;5.63;1.63;;;;;;;15.99;94.19;100485.47;5057425;28;20656;-83
2023/10/12 11:53:56;;;;;;;6.60;1.90;;;;;;;15.88;95.95;100464.84;5059028;28;20238;-83
2023/10/12 11:56:25;;;;;;;10.20;2.17;;;;;;;15.97;95.57;100458.34;5048877;28;20312;-82
2023/10/12 11:58:54;;;;;;;10.13;2.13;;;;;;;15.98;95.09;100459.22;5054525;28;20218;-81
2023/10/12 12:01:21;;;;;;;4.77;2.10;;;;;;;16.00;95.37;100466.13;5056032;28;20279;-83
2023/10/12 12:03:48;;;;;;;5.37;1.87;;;;;;;16.06;96.10;100449.22;5055629;28;20206;-80
2023/10/12 12:06:19;;;;;;;4.70;1.63;;;;;;;16.10;95.57;100447.34;5055110;28;20204;-82
2023/10/12 12:08:47;;;;;;;5.50;1.70;;;;;;;16.13;95.13;100455.09;5055422;28;20209;-82
2023/10/12 12:11:15;;;;;;;5.40;1.30;;;;;;;16.12;94.82;100454.25;5056173;28;20233;-80